createdAt,value
2022-09-01T00:04:14.521Z,36.08
2022-09-01T00:14:29.704Z,36.38
2022-09-01T00:24:31.787Z,36.06
2022-09-01T00:34:33.045Z,36.06
2022-09-01T00:44:34.355Z,36.01
2022-09-01T00:54:35.763Z,35.97
2022-09-01T01:04:37.060Z,36.41
2022-09-01T01:14:38.380Z,36.50
2022-09-01T01:24:39.765Z,36.36
2022-09-01T01:34:41.038Z,36.59
2022-09-01T01:44:42.315Z,36.73
2022-09-01T01:54:43.596Z,36.78
2022-09-01T02:04:44.879Z,36.95
2022-09-01T02:14:46.161Z,36.69
2022-09-01T02:24:47.427Z,36.84
2022-09-01T02:34:48.712Z,37.12
2022-09-01T02:44:50.012Z,36.86
2022-09-01T02:54:51.300Z,37.15
2022-09-01T03:04:52.625Z,37.18
2022-09-01T03:14:53.995Z,37.21
2022-09-01T03:24:55.307Z,37.14
2022-09-01T03:34:56.599Z,37.24
2022-09-01T03:44:58.204Z,37.05
2022-09-01T03:54:59.535Z,37.29
2022-09-01T04:05:02.705Z,37.25
2022-09-01T04:15:06.539Z,37.34
2022-09-01T04:25:07.883Z,37.25
2022-09-01T04:35:09.182Z,37.40
2022-09-01T04:45:11.188Z,37.28
2022-09-01T04:55:12.691Z,37.47
2022-09-01T05:05:15.074Z,37.22
2022-09-01T05:15:16.849Z,37.26
2022-09-01T05:25:20.162Z,37.11
2022-09-01T05:35:21.432Z,36.88
2022-09-01T05:45:22.778Z,37.03
2022-09-01T06:05:46.910Z,37.25
2022-09-01T06:26:06.885Z,37.35
2022-09-01T06:36:08.279Z,37.28
2022-09-01T06:46:09.691Z,37.53
2022-09-01T06:56:11.941Z,37.49
2022-09-01T07:16:52.067Z,37.80
2022-09-01T07:26:54.687Z,38.25
2022-09-01T07:47:20.084Z,38.39
2022-09-01T07:57:22.126Z,38.84
2022-09-01T08:07:23.408Z,38.84
2022-09-01T08:27:46.259Z,39.34
2022-09-01T08:37:47.532Z,39.25
2022-09-01T08:48:22.367Z,39.54
2022-09-01T08:58:11.132Z,39.78
2022-09-01T09:08:12.535Z,40.25
2022-09-01T09:18:19.891Z,40.13
2022-09-01T09:28:30.479Z,40.38
2022-09-01T09:49:00.850Z,40.41
2022-09-01T09:59:02.900Z,40.55
2022-09-01T10:09:07.899Z,40.56
2022-09-01T10:19:16.882Z,40.39
2022-09-01T10:29:24.835Z,40.08
2022-09-01T10:39:36.802Z,39.51
2022-09-01T10:49:46.522Z,39.03
2022-09-01T10:59:56.705Z,38.89
2022-09-01T11:10:08.739Z,38.61
2022-09-01T11:20:12.862Z,38.23
2022-09-01T11:30:33.869Z,38.13
2022-09-01T11:40:35.345Z,37.80
2022-09-01T11:50:36.786Z,37.38
2022-09-01T12:00:38.320Z,37.43
2022-09-01T12:10:48.003Z,37.10
2022-09-01T12:20:56.017Z,36.67
2022-09-01T12:31:03.886Z,36.48
2022-09-01T12:41:12.122Z,36.11
2022-09-01T13:01:42.743Z,35.61
2022-09-01T13:12:07.266Z,35.41
2022-09-01T13:53:31.887Z,33.46
2022-09-01T14:03:39.969Z,33.64
2022-09-01T14:23:58.052Z,33.08
2022-09-01T14:34:05.911Z,33.17
2022-09-01T14:44:16.425Z,33.08
2022-09-01T14:54:24.009Z,32.64
2022-09-01T15:04:29.175Z,32.33
2022-09-01T15:14:36.957Z,32.14
2022-09-01T15:24:51.392Z,32.20
2022-09-01T15:34:56.531Z,32.08
2022-09-01T16:06:31.004Z,32.88
2022-09-01T16:58:21.723Z,33.54
2022-09-01T17:08:23.382Z,33.54
2022-09-01T18:00:20.538Z,34.25
2022-09-01T18:10:21.969Z,34.46
2022-09-01T18:20:23.394Z,34.71
2022-09-01T18:30:42.613Z,34.83
2022-09-01T18:40:46.104Z,35.28
2022-09-01T18:50:47.539Z,35.50
2022-09-01T19:00:52.204Z,35.95
2022-09-01T19:10:56.986Z,35.39
2022-09-01T19:31:38.491Z,34.76
2022-09-01T19:41:45.992Z,34.75
2022-09-01T19:52:12.254Z,34.62
2022-09-01T20:02:13.857Z,34.58
2022-09-01T20:22:36.561Z,34.56
2022-09-01T20:33:15.376Z,34.18
2022-09-01T20:43:10.864Z,34.15
2022-09-01T20:53:15.554Z,33.77
2022-09-01T21:03:19.131Z,34.03
2022-09-01T21:13:25.219Z,33.98
2022-09-01T21:23:26.787Z,33.73
2022-09-01T21:33:33.400Z,33.54
2022-09-01T21:43:34.930Z,33.71
2022-09-01T21:53:38.595Z,33.66
2022-09-01T22:03:44.158Z,33.61
2022-09-01T22:13:45.481Z,33.55
2022-09-01T22:23:49.562Z,33.74
2022-09-01T22:33:50.871Z,33.72
2022-09-01T22:43:53.097Z,33.51
2022-09-01T22:53:54.438Z,33.88
2022-09-01T23:03:55.913Z,33.95
2022-09-01T23:24:12.388Z,33.79
2022-09-01T23:34:15.509Z,34.08
2022-09-01T23:44:16.795Z,33.78
2022-09-01T23:54:18.090Z,33.89
